Darstellungsparameter: Aktuell verwendete Einstellungen:
Skalierung der Graphiken ... ?
xyx+y,   Skalierungsfaktor:      Skalierung: Modus: x, Faktor: 1
Darstellungszeitraum ... ?
Vom - - bis: - -   Zeitraum: 26.08.2010 - 26.08.2010
Min/Max/Avg-Anzeige ... ?
Zeige MMA aktuell
Zeige MMA Monat
Zeige MMA alles
Zeige --A aktuell
Zeige --A Monat
Zeige --A alles
Keine MMA-Anzeige
MMA:
Average (ber die Originaldaten)
MMA-Basis: 26.08.2010 - 26.08.2010
Quicknavigation für Darstellung... ?
Tage:      1T, 2T, 3T, 5T -1T -2T -3T -5T +1T +2T +3T +5T
Wochen: 1W, 2W, 3W -1W -2W -3W +1W +2W +3W
Monate: 1M, 3M, 6M -1M -3M -6M +1M +3M +6M
Jahre:    1J, 3J, 5J, 10J -1J -3J -5J -10J +1J +3J +5J +10J
Nutze für die Darstellung ... ?
Originaldaten oder Mittelwerte auf ...
Stundenbasis Tagesbasis Wochenbasis
Monatsbasis Jahresbasis      Datenbasis: Original-Daten
Darstellen als:
Statistik (Auto) Statistik J:M      Darstellung:
Zur Graphik,    zurück zur Übersicht aller Sensoren.
 
Tabellarische Datenbersicht: ?
 
Sensor: Nr:Datum:Temp:Abs-Feuchte:Windchill:Wind:
Aussen-T/F 1 26-08-2010 00:05:04 17.1 C 9.03 g/m*3 17.1 C 0 km/h
2 26-08-2010 00:17:04 17.2 C 9.08 g/m*3 17.2 C 0 km/h
3 26-08-2010 00:29:04 17.3 C 9.13 g/m*3 17.3 C 0 km/h
4 26-08-2010 00:41:04 17.4 C 9.04 g/m*3 17.4 C 0 km/h
5 26-08-2010 00:53:04 17.4 C 9.04 g/m*3 17.4 C 0 km/h
6 26-08-2010 01:05:05 17.5 C 9.24 g/m*3 17.5 C 0 km/h
7 26-08-2010 01:17:05 17.5 C 9.09 g/m*3 17.5 C 0 km/h
8 26-08-2010 01:29:05 17.5 C 9.09 g/m*3 17.5 C 0 km/h
9 26-08-2010 01:41:05 17.5 C 9.09 g/m*3 17.5 C 0 km/h
10 26-08-2010 01:53:05 17.4 C 9.04 g/m*3 17.4 C 0 km/h
11 26-08-2010 02:05:05 16.9 C 9.78 g/m*3 16.9 C 0 km/h
12 26-08-2010 02:17:05 17.1 C 10.19 g/m*3 17.1 C 0 km/h
13 26-08-2010 02:29:05 16.7 C 10.09 g/m*3 16.7 C 0 km/h
14 26-08-2010 02:41:05 17 C 9.84 g/m*3 17 C 0 km/h
15 26-08-2010 02:53:05 16.7 C 9.95 g/m*3 16.7 C 0 km/h
16 26-08-2010 03:05:05 16.8 C 10.29 g/m*3 16.8 C 0 km/h
17 26-08-2010 03:17:05 16.8 C 10.29 g/m*3 16.8 C 0 km/h
18 26-08-2010 03:29:05 16.9 C 9.92 g/m*3 16.9 C 0 km/h
19 26-08-2010 03:41:05 16.9 C 9.92 g/m*3 16.9 C 0 km/h
20 26-08-2010 03:53:05 16.9 C 9.78 g/m*3 16.9 C 0 km/h
21 26-08-2010 04:05:06 16.9 C 9.78 g/m*3 16.9 C 0 km/h
22 26-08-2010 04:17:06 17 C 9.69 g/m*3 17 C 0 km/h
23 26-08-2010 04:29:06 17 C 9.84 g/m*3 17 C 0 km/h
24 26-08-2010 04:41:06 16.9 C 9.92 g/m*3 16.9 C 0 km/h
25 26-08-2010 04:53:06 16.9 C 10.07 g/m*3 16.9 C 0 km/h
Sensor: Nr:Datum:Temp:Abs-Feuchte:Windchill:Wind:
Aussen-T/F 26 26-08-2010 05:05:06 17.3 C 10.31 g/m*3 17.3 C 0 km/h
27 26-08-2010 05:17:06 18.1 C 10.35 g/m*3 18.1 C 0 km/h
28 26-08-2010 05:29:06 18.5 C 10.28 g/m*3 18.5 C 0 km/h
29 26-08-2010 05:41:06 18.8 C 10.31 g/m*3 18.8 C 0 km/h
30 26-08-2010 05:53:06 18.7 C 10.25 g/m*3 18.7 C 0 km/h
31 26-08-2010 06:05:03 18.2 C 10.1 g/m*3 18.2 C 0 km/h
32 26-08-2010 06:17:03 18.1 C 10.35 g/m*3 18.1 C 0 km/h
33 26-08-2010 06:29:03 17.9 C 10.54 g/m*3 17.9 C 0 km/h
34 26-08-2010 06:41:03 18.1 C 10.82 g/m*3 18.1 C 0 km/h
35 26-08-2010 06:53:02 18.6 C 10.82 g/m*3 18.6 C 0 km/h
36 26-08-2010 07:05:02 18.9 C 10.69 g/m*3 18.9 C 0 km/h
37 26-08-2010 07:17:02 19 C 10.59 g/m*3 19 C 0 km/h
38 26-08-2010 07:29:02 19.2 C 10.55 g/m*3 19.2 C 0 km/h
39 26-08-2010 07:41:02 19.4 C 10.68 g/m*3 19.4 C 0 km/h
40 26-08-2010 07:53:02 19.8 C 10.93 g/m*3 19.8 C 0 km/h
41 26-08-2010 08:05:01 20 C 10.71 g/m*3 20 C 0 km/h
42 26-08-2010 08:17:02 20.1 C 10.95 g/m*3 20.1 C 0 km/h
43 26-08-2010 08:29:02 20.2 C 11.02 g/m*3 20.2 C 0 km/h
44 26-08-2010 08:41:01 20.1 C 11.3 g/m*3 20.1 C 0 km/h
45 26-08-2010 08:53:01 20.6 C 11.63 g/m*3 20.6 C 0 km/h
46 26-08-2010 09:05:02 20.8 C 11.41 g/m*3 20.8 C 0 km/h
47 26-08-2010 09:17:02 21.1 C 11.42 g/m*3 21.1 C 0 km/h
48 26-08-2010 09:29:02 21.5 C 11.31 g/m*3 21.5 C 0 km/h
49 26-08-2010 09:41:02 22 C 11.26 g/m*3 22 C 0 km/h
50 26-08-2010 09:53:01 22.2 C 11.19 g/m*3 22.2 C 0 km/h
Sensor: Nr:Datum:Temp:Abs-Feuchte:Windchill:Wind:
Aussen-T/F 51 26-08-2010 10:05:02 22.6 C 11.25 g/m*3 22.6 C 0 km/h
52 26-08-2010 10:17:02 22.6 C 11.25 g/m*3 22.6 C 0 km/h
53 26-08-2010 10:29:02 22.9 C 11.24 g/m*3 22.9 C 0 km/h
54 26-08-2010 10:41:01 22.7 C 11.11 g/m*3 22.7 C 0 km/h
55 26-08-2010 10:53:02 23 C 11.1 g/m*3 23 C 0 km/h
56 26-08-2010 11:05:01 23.2 C 11.23 g/m*3 23.2 C 0 km/h
57 26-08-2010 11:17:02 23.9 C 11.25 g/m*3 23.9 C 0 km/h
58 26-08-2010 11:29:03 23.5 C 11.21 g/m*3 23.5 C 0 km/h
59 26-08-2010 11:41:01 24.1 C 11.16 g/m*3 24.1 C 0 km/h
60 26-08-2010 11:53:02 24.1 C 10.94 g/m*3 24.1 C 0 km/h
61 26-08-2010 12:05:02 24.4 C 11.13 g/m*3 24.4 C 0 km/h
62 26-08-2010 12:17:02 23.8 C 10.97 g/m*3 23.8 C 0 km/h
63 26-08-2010 12:29:02 23.4 C 11.14 g/m*3 23.4 C 0 km/h
64 26-08-2010 12:41:03 23.2 C 11.23 g/m*3 23.2 C 0 km/h
65 26-08-2010 12:53:02 22.9 C 11.24 g/m*3 22.9 C 0 km/h
66 26-08-2010 13:05:02 22.7 C 11.31 g/m*3 22.7 C 0 km/h
67 26-08-2010 13:17:01 22.7 C 11.31 g/m*3 22.7 C 0 km/h
68 26-08-2010 13:29:01 22.9 C 11.24 g/m*3 22.9 C 0 km/h
69 26-08-2010 13:41:02 23.3 C 11.08 g/m*3 23.3 C 0 km/h
70 26-08-2010 13:53:02 23.2 C 11.02 g/m*3 23.2 C 0 km/h
71 26-08-2010 14:05:02 23.5 C 11.21 g/m*3 23.5 C 0 km/h
72 26-08-2010 14:17:02 23.9 C 11.25 g/m*3 23.9 C 0 km/h
73 26-08-2010 14:29:02 23.9 C 11.03 g/m*3 23.9 C 0 km/h
74 26-08-2010 14:41:02 23.8 C 11.19 g/m*3 23.8 C 0 km/h
75 26-08-2010 14:53:02 23.9 C 11.25 g/m*3 23.9 C 0 km/h
Sensor: Nr:Datum:Temp:Abs-Feuchte:Windchill:Wind:
Aussen-T/F 76 26-08-2010 15:05:02 23.9 C 11.47 g/m*3 23.9 C 0 km/h
77 26-08-2010 15:17:02 23.8 C 11.19 g/m*3 23.8 C 0 km/h
78 26-08-2010 15:29:02 23.7 C 11.34 g/m*3 23.7 C 0 km/h
79 26-08-2010 15:41:02 23.5 C 11.42 g/m*3 23.5 C 0 km/h
80 26-08-2010 15:53:02 23.5 C 11.21 g/m*3 23.5 C 0 km/h
81 26-08-2010 16:05:02 23.9 C 11.47 g/m*3 23.9 C 0 km/h
82 26-08-2010 16:17:02 23.8 C 11.4 g/m*3 23.8 C 0 km/h
83 26-08-2010 16:29:02 23.7 C 11.34 g/m*3 23.7 C 0 km/h
84 26-08-2010 16:41:02 24.2 C 11.22 g/m*3 24.2 C 0 km/h
85 26-08-2010 16:53:02 24.1 C 10.94 g/m*3 24.1 C 0 km/h
86 26-08-2010 17:05:02 23.9 C 11.25 g/m*3 23.9 C 0 km/h
87 26-08-2010 17:17:02 23.7 C 11.34 g/m*3 23.7 C 0 km/h
88 26-08-2010 17:29:02 23.6 C 11.27 g/m*3 23.6 C 0 km/h
89 26-08-2010 17:41:02 23.5 C 11.21 g/m*3 23.5 C 0 km/h
90 26-08-2010 17:53:02 23.4 C 11.35 g/m*3 23.4 C 0 km/h
91 26-08-2010 18:05:02 23.4 C 11.35 g/m*3 23.4 C 0 km/h
92 26-08-2010 18:17:02 23.3 C 11.5 g/m*3 23.3 C 0 km/h
93 26-08-2010 18:29:03 23.2 C 11.85 g/m*3 23.2 C 0 km/h
94 26-08-2010 18:41:01 23 C 11.72 g/m*3 23 C 0 km/h
95 26-08-2010 18:53:02 23 C 11.92 g/m*3 23 C 0 km/h
96 26-08-2010 19:05:01 22.6 C 12.25 g/m*3 22.6 C 0 km/h
97 26-08-2010 19:17:02 22.6 C 12.25 g/m*3 22.6 C 0 km/h
98 26-08-2010 19:29:02 21.6 C 13.28 g/m*3 21.6 C 0 km/h
99 26-08-2010 19:41:02 20.7 C 14.04 g/m*3 20.7 C 0 km/h
100 26-08-2010 19:53:02 20.8 C 14.67 g/m*3 20.8 C 0 km/h
Sensor: Nr:Datum:Temp:Abs-Feuchte:Windchill:Wind:
Aussen-T/F 101 26-08-2010 20:05:02 21 C 14.65 g/m*3 21 C 0 km/h
102 26-08-2010 20:17:02 20.9 C 14.57 g/m*3 20.9 C 0 km/h
103 26-08-2010 20:29:02 21 C 14.47 g/m*3 21 C 0 km/h
104 26-08-2010 20:41:02 20.9 C 14.39 g/m*3 20.9 C 0 km/h
105 26-08-2010 20:53:01 20.9 C 14.39 g/m*3 20.9 C 0 km/h
106 26-08-2010 21:05:02 20.7 C 14.04 g/m*3 20.7 C 0 km/h
107 26-08-2010 21:17:01 20.7 C 14.04 g/m*3 20.7 C 0 km/h
108 26-08-2010 21:29:01 20.4 C 13.98 g/m*3 20.4 C 0 km/h
109 26-08-2010 21:41:02 20.2 C 13.99 g/m*3 20.2 C 0 km/h
110 26-08-2010 21:53:02 20.1 C 14.08 g/m*3 20.1 C 0 km/h
111 26-08-2010 22:06:04 20 C 14.34 g/m*3 20 C 0 km/h
112 26-08-2010 22:18:04 19.8 C 14.52 g/m*3 19.8 C 0 km/h
113 26-08-2010 22:30:04 19.7 C 14.6 g/m*3 19.7 C 0 km/h
114 26-08-2010 22:42:04 19.7 C 14.77 g/m*3 19.7 C 0 km/h
115 26-08-2010 22:54:04 19.6 C 14.86 g/m*3 19.6 C 0 km/h
116 26-08-2010 23:06:04 19.5 C 14.77 g/m*3 19.5 C 0 km/h
117 26-08-2010 23:18:04 19.5 C 14.94 g/m*3 19.5 C 0 km/h
118 26-08-2010 23:30:04 19.5 C 14.94 g/m*3 19.5 C 0 km/h
119 26-08-2010 23:42:05 19.4 C 15.02 g/m*3 19.4 C 0 km/h
120 26-08-2010 23:54:05 19.3 C 15.09 g/m*3 19.3 C 0 km/h

Legende:
   Min
   Max


Maximal/Minimal-Werte vom 26.08.2010 - 26.08.2010

Sensor Min Max Avg
Temp
(Aussen-T/F)
16.7 °C
26-08-2010  02:29:05
24.4 °C
26-08-2010  12:05:02
20.68 °C
Abs-Feuchte
(Aussen-T/F)
9.03 g/m*3
26-08-2010  00:05:04
15.09 g/m*3
26-08-2010  23:54:05
11.36 g/m*3
Windchill
(Aussen-T/F)
16.7 C
26-08-2010  02:29:05
24.4 C
26-08-2010  12:05:02
20.51 C

Die Daten stammen von einer Davis Vantage Pro 2 Wetter-Station und werden unter Linux mit der Software wview2wettercgi und aufbereitet. Alle Angaben erfolgen ohne Gewähr für ihre Vollständigkeit oder Richtigkeit.
Kontakt: Rainer Krienke krienke@uni-koblenz.de . Meine Webseiten an der Uni Koblenz oder privat.
Version: $Revision: 0.78 $